Time;durP1;ratioP1;P1;durP2;ratioP2;P2;SDS_P1;SDS_P2;PMS_P1;PMS_P2;Temp;Humidity;BMP_temperature;BMP_pressure;BME280_temperature;BME280_humidity;BME280_pressure;Samples;Min_cycle;Max_cycle;Signal;HPM_P1;HPM_P2
2022/12/01 00:00:48;;;;;;;;;;;;;;;;;;5028593;28;19909;-66
2022/12/01 00:03:13;;;;;;;;;;;;;;;;;;5028822;28;19916;-67
2022/12/01 00:05:39;;;;;;;;;;;;;;;;;;5016046;28;19925;-66
2022/12/01 00:08:05;;;;;;;;;;;;;;;;;;5027215;28;19949;-65
2022/12/01 00:10:31;;;;;;;;;;;;;;;;;;5009644;28;20356;-66
2022/12/01 00:12:57;;;;;;;;;;;;;;;;;;5009195;28;19910;-66
2022/12/01 00:15:23;;;;;;;;;;;;;;;;;;5014922;28;19917;-66
2022/12/01 00:17:49;;;;;;;;;;;;;;;;;;5011064;28;19920;-67
2022/12/01 00:20:15;;;;;;;;;;;;;;;;;;5027831;28;19992;-67
2022/12/01 00:22:41;;;;;;;;;;;;;;;;;;5029115;28;20024;-66
2022/12/01 00:25:06;;;;;;;;;;;;;;;;;;5018326;28;19917;-67
2022/12/01 00:27:32;;;;;;;;;;;;;;;;;;5011564;28;20348;-67
2022/12/01 00:29:58;;;;;;;;;;;;;;;;;;5010514;28;19914;-66
2022/12/01 00:32:24;;;;;;;;;;;;;;;;;;5019335;28;19916;-66
2022/12/01 00:34:50;;;;;;;;;;;;;;;;;;5029072;28;20008;-66
2022/12/01 00:37:16;;;;;;;;;;;;;;;;;;5029847;28;19921;-66
2022/12/01 00:39:42;;;;;;;;;;;;;;;;;;5032742;28;19949;-66
2022/12/01 00:42:08;;;;;;;;;;;;;;;;;;5028452;28;20349;-66
2022/12/01 00:44:33;;;;;;;;;;;;;;;;;;5014514;28;19916;-65
2022/12/01 00:46:59;;;;;;;;;;;;;;;;;;5013212;28;19913;-66
2022/12/01 00:49:25;;;;;;;;;;;;;;;;;;5014249;28;19949;-66
2022/12/01 00:51:51;;;;;;;;;;;;;;;;;;5013440;28;19991;-67
2022/12/01 00:54:17;;;;;;;;;;;;;;;;;;5016391;28;19913;-67
2022/12/01 00:56:43;;;;;;;;;;;;;;;;;;5014450;28;19921;-66
2022/12/01 00:59:09;;;;;;;;;;;;;;;;;;5025593;28;19921;-66
2022/12/01 01:01:35;;;;;;;;;;;;;;;;;;5013148;28;19917;-67
2022/12/01 01:04:01;;;;;;;;;;;;;;;;;;5019429;28;19917;-66
2022/12/01 01:06:27;;;;;;;;;;;;;;;;;;5013052;28;20038;-65
2022/12/01 01:08:52;;;;;;;;;;;;;;;;;;5024490;28;20382;-66
2022/12/01 01:11:18;;;;;;;;;;;;;;;;;;5032079;28;19917;-66
2022/12/01 01:13:44;;;;;;;;;;;;;;;;;;5031793;28;19999;-66
2022/12/01 01:16:10;;;;;;;;;;;;;;;;;;5013637;28;19917;-67
2022/12/01 01:18:36;;;;;;;;;;;;;;;;;;5030995;28;19913;-67
2022/12/01 01:21:02;;;;;;;;;;;;;;;;;;5020734;28;19968;-66
2022/12/01 01:23:28;;;;;;;;;;;;;;;;;;5017817;28;20757;-67
2022/12/01 01:25:54;;;;;;;;;;;;;;;;;;5031975;28;19919;-66
2022/12/01 01:28:20;;;;;;;;;;;;;;;;;;5031957;28;20000;-65
2022/12/01 01:30:45;;;;;;;;;;;;;;;;;;5031996;28;19910;-66
2022/12/01 01:33:11;;;;;;;;;;;;;;;;;;5031876;28;19909;-66
2022/12/01 01:35:37;;;;;;;;;;;;;;;;;;5025210;28;20377;-66
2022/12/01 01:38:03;;;;;;;;;;;;;;;;;;5031557;28;19913;-67
2022/12/01 01:40:29;;;;;;;;;;;;;;;;;;5016610;28;20398;-66
2022/12/01 01:42:55;;;;;;;;;;;;;;;;;;5012812;28;19913;-67
2022/12/01 01:45:21;;;;;;;;;;;;;;;;;;5012506;28;19922;-65
2022/12/01 01:47:47;;;;;;;;;;;;;;;;;;5020650;28;20356;-66
2022/12/01 01:50:13;;;;;;;;;;;;;;;;;;5031793;28;19959;-66
2022/12/01 01:52:39;;;;;;;;;;;;;;;;;;5031787;28;19959;-67
2022/12/01 01:55:05;;;;;;;;;;;;;;;;;;5031531;28;19999;-66
2022/12/01 01:57:31;;;;;;;;;;;;;;;;;;5031481;28;20545;-66
2022/12/01 01:59:56;;;;;;;;;;;;;;;;;;5031743;28;19940;-66
2022/12/01 02:02:24;;;;;;;;;;;;;;;;;;5031176;28;19983;-66
2022/12/01 02:04:50;;;;;;;;;;;;;;;;;;5031253;28;20366;-66
2022/12/01 02:07:16;;;;;;;;;;;;;;;;;;5035065;28;20398;-66
2022/12/01 02:09:42;;;;;;;;;;;;;;;;;;5018459;28;19913;-67
2022/12/01 02:12:10;;;;;;;;;;;;;;;;;;5012019;28;19916;-67
2022/12/01 02:14:36;;;;;;;;;;;;;;;;;;5012356;28;19917;-67
2022/12/01 02:17:02;;;;;;;;;;;;;;;;;;5012177;28;19940;-67
2022/12/01 02:19:27;;;;;;;;;;;;;;;;;;5030855;28;19967;-66
2022/12/01 02:21:53;;;;;;;;;;;;;;;;;;5031056;28;19988;-67
2022/12/01 02:24:19;;;;;;;;;;;;;;;;;;5030974;28;20388;-67
2022/12/01 02:26:45;;;;;;;;;;;;;;;;;;5031227;28;19967;-66
2022/12/01 02:29:11;;;;;;;;;;;;;;;;;;5030392;28;19917;-65
2022/12/01 02:31:37;;;;;;;;;;;;;;;;;;5017490;28;19921;-66
2022/12/01 02:34:03;;;;;;;;;;;;;;;;;;5022218;28;20462;-66
2022/12/01 02:36:29;;;;;;;;;;;;;;;;;;5020131;28;19921;-65
2022/12/01 02:38:54;;;;;;;;;;;;;;;;;;5011945;28;19956;-65
2022/12/01 02:41:20;;;;;;;;;;;;;;;;;;5011977;28;19968;-67
2022/12/01 02:43:46;;;;;;;;;;;;;;;;;;5030209;28;19920;-66
2022/12/01 02:46:12;;;;;;;;;;;;;;;;;;5030401;28;19956;-66
2022/12/01 02:48:38;;;;;;;;;;;;;;;;;;5030609;28;19913;-67
2022/12/01 02:51:04;;;;;;;;;;;;;;;;;;5023849;28;19913;-67
2022/12/01 02:53:30;;;;;;;;;;;;;;;;;;5030839;28;19948;-67
2022/12/01 02:55:56;;;;;;;;;;;;;;;;;;5030500;28;20012;-67
2022/12/01 02:58:21;;;;;;;;;;;;;;;;;;5029848;28;20399;-66
2022/12/01 03:00:47;;;;;;;;;;;;;;;;;;5014241;28;19909;-67
2022/12/01 03:03:13;;;;;;;;;;;;;;;;;;5022225;28;20000;-67
2022/12/01 03:05:40;;;;;;;;;;;;;;;;;;5029676;28;20007;-65
2022/12/01 03:08:06;;;;;;;;;;;;;;;;;;5033757;28;20012;-66
2022/12/01 03:10:32;;;;;;;;;;;;;;;;;;5030214;28;20019;-65
2022/12/01 03:12:58;;;;;;;;;;;;;;;;;;5029422;28;19913;-66
2022/12/01 03:15:23;;;;;;;;;;;;;;;;;;5029956;28;19909;-66
2022/12/01 03:17:49;;;;;;;;;;;;;;;;;;5017313;28;19940;-66
2022/12/01 03:20:15;;;;;;;;;;;;;;;;;;5017308;28;19925;-66
2022/12/01 03:22:41;;;;;;;;;;;;;;;;;;5023287;28;19952;-67
2022/12/01 03:25:07;;;;;;;;;;;;;;;;;;5017561;28;20457;-66
2022/12/01 03:27:33;;;;;;;;;;;;;;;;;;5011956;28;20013;-65
2022/12/01 03:29:59;;;;;;;;;;;;;;;;;;5015757;28;19920;-66
2022/12/01 03:32:25;;;;;;;;;;;;;;;;;;5029563;28;19913;-66
2022/12/01 03:34:51;;;;;;;;;;;;;;;;;;5023295;28;19916;-65
2022/12/01 03:37:17;;;;;;;;;;;;;;;;;;5022766;28;19924;-67
2022/12/01 03:39:43;;;;;;;;;;;;;;;;;;5029769;28;19909;-65
2022/12/01 03:42:09;;;;;;;;;;;;;;;;;;5029022;28;20298;-65
2022/12/01 03:44:35;;;;;;;;;;;;;;;;;;5029857;28;20000;-66
2022/12/01 03:47:01;;;;;;;;;;;;;;;;;;5029561;28;19917;-66
2022/12/01 03:49:27;;;;;;;;;;;;;;;;;;5029493;28;19909;-66
2022/12/01 03:51:54;;;;;;;;;;;;;;;;;;5029490;28;20384;-65
2022/12/01 03:54:20;;;;;;;;;;;;;;;;;;5029542;28;19917;-66
2022/12/01 03:56:46;;;;;;;;;;;;;;;;;;5029434;28;20542;-65
2022/12/01 03:59:12;;;;;;;;;;;;;;;;;;5029423;28;19914;-66
2022/12/01 04:01:38;;;;;;;;;;;;;;;;;;5029015;28;20286;-65
2022/12/01 04:04:04;;;;;;;;;;;;;;;;;;5029330;28;19916;-65
2022/12/01 04:06:30;;;;;;;;;;;;;;;;;;5029094;28;19948;-66
2022/12/01 04:08:56;;;;;;;;;;;;;;;;;;5018407;28;19913;-65
2022/12/01 04:14:07;;;;;;;;;;;;;;;;;;5029648;28;19924;-65
2022/12/01 04:16:32;;;;;;;;;;;;;;;;;;5029057;28;19921;-65
2022/12/01 04:18:58;;;;;;;;;;;;;;;;;;5019476;28;20634;-66
2022/12/01 04:21:24;;;;;;;;;;;;;;;;;;5026029;28;19905;-66
2022/12/01 04:23:59;;;;;;;;;;;;;;;;;;5028836;28;20392;-66
2022/12/01 04:26:25;;;;;;;;;;;;;;;;;;5029084;28;19909;-65
2022/12/01 04:28:51;;;;;;;;;;;;;;;;;;5029281;28;19920;-67
2022/12/01 04:31:17;;;;;;;;;;;;;;;;;;5029272;28;20341;-66
2022/12/01 04:33:43;;;;;;;;;;;;;;;;;;5027598;28;19917;-66
2022/12/01 04:36:09;;;;;;;;;;;;;;;;;;5028696;28;20381;-67
2022/12/01 04:38:38;;;;;;;;;;;;;;;;;;5028489;28;19917;-66
2022/12/01 04:41:03;;;;;;;;;;;;;;;;;;5028597;28;19924;-66
2022/12/01 04:43:29;;;;;;;;;;;;;;;;;;5029263;28;20274;-66
2022/12/01 04:45:55;;;;;;;;;;;;;;;;;;5029135;28;19909;-65
2022/12/01 04:48:21;;;;;;;;;;;;;;;;;;5028478;28;20429;-66
2022/12/01 04:50:47;;;;;;;;;;;;;;;;;;5029129;28;19933;-66
2022/12/01 04:53:13;;;;;;;;;;;;;;;;;;5021988;28;20002;-65
2022/12/01 04:55:39;;;;;;;;;;;;;;;;;;5009809;28;19917;-66
2022/12/01 04:58:05;;;;;;;;;;;;;;;;;;5016512;28;19917;-65
2022/12/01 05:00:30;;;;;;;;;;;;;;;;;;5029309;28;19927;-67
2022/12/01 05:02:56;;;;;;;;;;;;;;;;;;5028789;28;19909;-66
2022/12/01 05:05:22;;;;;;;;;;;;;;;;;;5028842;28;20542;-66
2022/12/01 05:07:48;;;;;;;;;;;;;;;;;;5025089;28;19913;-66
2022/12/01 05:10:14;;;;;;;;;;;;;;;;;;5021605;28;19924;-65
2022/12/01 05:12:40;;;;;;;;;;;;;;;;;;5015975;28;19949;-66
2022/12/01 05:15:06;;;;;;;;;;;;;;;;;;5023172;28;19952;-66
2022/12/01 05:17:32;;;;;;;;;;;;;;;;;;5009746;28;19921;-67
2022/12/01 05:22:42;;;;;;;;;;;;;;;;;;5028122;28;20006;-66
2022/12/01 05:25:08;;;;;;;;;;;;;;;;;;5019082;28;19967;-66
2022/12/01 05:27:34;;;;;;;;;;;;;;;;;;5013302;28;19920;-66
2022/12/01 05:30:00;;;;;;;;;;;;;;;;;;5018203;28;19914;-66
2022/12/01 05:32:26;;;;;;;;;;;;;;;;;;5015457;28;19913;-66
2022/12/01 05:34:52;;;;;;;;;;;;;;;;;;5012914;28;20286;-67
2022/12/01 05:37:17;;;;;;;;;;;;;;;;;;5022979;28;20019;-67
2022/12/01 05:39:43;;;;;;;;;;;;;;;;;;5013747;28;19948;-66
2022/12/01 05:42:09;;;;;;;;;;;;;;;;;;5012195;28;19945;-66
2022/12/01 05:44:35;;;;;;;;;;;;;;;;;;5016772;28;19923;-66
2022/12/01 05:47:01;;;;;;;;;;;;;;;;;;5027133;28;19909;-64
2022/12/01 05:49:27;;;;;;;;;;;;;;;;;;5013670;28;19914;-64
2022/12/01 05:51:53;;;;;;;;;;;;;;;;;;5026052;28;19932;-66
2022/12/01 05:54:19;;;;;;;;;;;;;;;;;;5026864;28;20297;-65
2022/12/01 05:56:45;;;;;;;;;;;;;;;;;;5011960;28;19917;-65
2022/12/01 05:59:11;;;;;;;;;;;;;;;;;;5023091;28;20404;-65
2022/12/01 06:01:36;;;;;;;;;;;;;;;;;;5017884;28;19913;-66
2022/12/01 06:04:02;;;;;;;;;;;;;;;;;;5015037;28;20456;-65
2022/12/01 06:06:28;;;;;;;;;;;;;;;;;;5030424;28;20416;-65
2022/12/01 06:08:54;;;;;;;;;;;;;;;;;;5018170;28;19910;-66
2022/12/01 06:11:20;;;;;;;;;;;;;;;;;;5011864;28;19972;-65
2022/12/01 06:13:46;;;;;;;;;;;;;;;;;;5011993;28;19921;-65
2022/12/01 06:16:12;;;;;;;;;;;;;;;;;;5012726;28;19927;-65
2022/12/01 06:18:38;;;;;;;;;;;;;;;;;;5029067;28;19920;-66
2022/12/01 06:21:04;;;;;;;;;;;;;;;;;;5030228;28;19924;-66
2022/12/01 06:23:30;;;;;;;;;;;;;;;;;;5030672;28;19913;-66
2022/12/01 06:25:56;;;;;;;;;;;;;;;;;;5030311;28;19963;-66
2022/12/01 06:28:22;;;;;;;;;;;;;;;;;;5028784;28;20281;-66
2022/12/01 06:30:48;;;;;;;;;;;;;;;;;;5030996;28;19997;-66
2022/12/01 06:33:14;;;;;;;;;;;;;;;;;;5016821;28;19917;-67
2022/12/01 06:35:39;;;;;;;;;;;;;;;;;;5010283;28;19933;-69
2022/12/01 06:38:05;;;;;;;;;;;;;;;;;;5011473;28;19914;-68
2022/12/01 06:40:31;;;;;;;;;;;;;;;;;;5011770;28;19921;-68
2022/12/01 06:42:57;;;;;;;;;;;;;;;;;;5013909;28;19910;-69
2022/12/01 06:45:23;;;;;;;;;;;;;;;;;;5014638;28;20401;-69
2022/12/01 06:47:50;;;;;;;;;;;;;;;;;;5017758;28;19913;-70
2022/12/01 06:50:15;;;;;;;;;;;;;;;;;;5021490;28;19948;-70
2022/12/01 06:52:41;;;;;;;;;;;;;;;;;;5011716;28;19949;-71
2022/12/01 06:55:07;;;;;;;;;;;;;;;;;;5011118;28;19920;-70
2022/12/01 06:57:33;;;;;;;;;;;;;;;;;;5016911;28;19925;-70
2022/12/01 06:59:59;;;;;;;;;;;;;;;;;;5020556;28;19988;-69
2022/12/01 07:02:25;;;;;;;;;;;;;;;;;;5029375;28;19913;-71
2022/12/01 07:04:51;;;;;;;;;;;;;;;;;;5014347;28;19925;-73
2022/12/01 07:07:17;;;;;;;;;;;;;;;;;;5013741;28;20006;-71
2022/12/01 07:09:42;;;;;;;;;;;;;;;;;;5024546;28;20427;-71
2022/12/01 07:12:08;;;;;;;;;;;;;;;;;;5015246;28;19928;-69
2022/12/01 07:14:34;;;;;;;;;;;;;;;;;;5011273;28;19919;-71
2022/12/01 07:17:00;;;;;;;;;;;;;;;;;;5010860;28;20358;-71
2022/12/01 07:19:26;;;;;;;;;;;;;;;;;;5010481;28;19913;-71
2022/12/01 07:21:52;;;;;;;;;;;;;;;;;;5023707;28;19917;-71
2022/12/01 07:24:18;;;;;;;;;;;;;;;;;;5017095;28;19995;-71
2022/12/01 07:26:44;;;;;;;;;;;;;;;;;;5024221;28;19916;-71
2022/12/01 07:29:10;;;;;;;;;;;;;;;;;;5029924;28;19917;-71
2022/12/01 07:31:36;;;;;;;;;;;;;;;;;;5017459;28;19945;-69
2022/12/01 07:34:01;;;;;;;;;;;;;;;;;;5017038;28;19956;-69
2022/12/01 07:36:27;;;;;;;;;;;;;;;;;;5030137;28;19924;-70
2022/12/01 07:38:53;;;;;;;;;;;;;;;;;;5030021;28;19924;-70
2022/12/01 07:41:19;;;;;;;;;;;;;;;;;;5029840;28;19909;-70
2022/12/01 07:43:45;;;;;;;;;;;;;;;;;;5029617;28;19913;-70
2022/12/01 07:46:11;;;;;;;;;;;;;;;;;;5029064;28;20000;-69
2022/12/01 07:48:37;;;;;;;;;;;;;;;;;;5028118;28;19951;-69
2022/12/01 07:51:03;;;;;;;;;;;;;;;;;;5029817;28;19913;-70
2022/12/01 07:53:29;;;;;;;;;;;;;;;;;;5029587;28;19913;-69
2022/12/01 07:55:55;;;;;;;;;;;;;;;;;;5029090;28;20306;-69
2022/12/01 07:58:21;;;;;;;;;;;;;;;;;;5029490;28;19936;-69
2022/12/01 08:00:47;;;;;;;;;;;;;;;;;;5028879;28;20670;-69
2022/12/01 08:03:12;;;;;;;;;;;;;;;;;;5029037;28;19920;-69
2022/12/01 08:05:38;;;;;;;;;;;;;;;;;;5029283;28;20432;-71
2022/12/01 08:08:04;;;;;;;;;;;;;;;;;;5021492;28;19959;-71
2022/12/01 08:10:30;;;;;;;;;;;;;;;;;;5013040;28;19917;-72
2022/12/01 08:12:56;;;;;;;;;;;;;;;;;;5019258;28;20433;-71
2022/12/01 08:15:22;;;;;;;;;;;;;;;;;;5029716;28;19909;-73
2022/12/01 08:17:48;;;;;;;;;;;;;;;;;;5028046;28;19970;-71
2022/12/01 08:20:14;;;;;;;;;;;;;;;;;;5010285;28;19914;-71
2022/12/01 08:22:40;;;;;;;;;;;;;;;;;;5010308;28;20365;-71
2022/12/01 08:25:06;;;;;;;;;;;;;;;;;;5010643;28;19916;-71
2022/12/01 08:27:32;;;;;;;;;;;;;;;;;;5010409;28;19909;-71
2022/12/01 08:29:58;;;;;;;;;;;;;;;;;;5010272;28;19916;-70
2022/12/01 08:32:24;;;;;;;;;;;;;;;;;;5023668;28;19936;-70
2022/12/01 08:34:49;;;;;;;;;;;;;;;;;;5029041;28;19913;-70
2022/12/01 08:37:15;;;;;;;;;;;;;;;;;;5029806;28;20420;-71
2022/12/01 08:39:41;;;;;;;;;;;;;;;;;;5028984;28;19915;-70
2022/12/01 08:42:07;;;;;;;;;;;;;;;;;;5028845;28;20377;-70
2022/12/01 08:44:33;;;;;;;;;;;;;;;;;;5013038;28;20000;-70
2022/12/01 08:46:59;;;;;;;;;;;;;;;;;;5027377;28;19909;-71
2022/12/01 08:49:25;;;;;;;;;;;;;;;;;;5028835;28;20000;-70
2022/12/01 08:51:51;;;;;;;;;;;;;;;;;;5011192;28;19924;-70
2022/12/01 08:54:17;;;;;;;;;;;;;;;;;;5015093;28;19917;-69
2022/12/01 08:56:43;;;;;;;;;;;;;;;;;;5014063;28;20267;-69
2022/12/01 08:59:08;;;;;;;;;;;;;;;;;;5031021;28;19909;-69
2022/12/01 09:01:34;;;;;;;;;;;;;;;;;;5032444;28;19909;-69
2022/12/01 09:04:07;;;;;;;;;;;;;;;;;;5023085;28;19917;-69
2022/12/01 09:06:33;;;;;;;;;;;;;;;;;;5030585;28;19925;-70
2022/12/01 09:08:59;;;;;;;;;;;;;;;;;;5019623;28;19960;-69
2022/12/01 09:11:25;;;;;;;;;;;;;;;;;;5024158;28;19913;-69
2022/12/01 09:13:50;;;;;;;;;;;;;;;;;;5029450;28;19913;-70
2022/12/01 09:16:16;;;;;;;;;;;;;;;;;;5014645;28;20378;-70
2022/12/01 09:18:42;;;;;;;;;;;;;;;;;;5019683;28;19913;-69
2022/12/01 09:21:08;;;;;;;;;;;;;;;;;;5032538;28;20393;-69
2022/12/01 09:23:34;;;;;;;;;;;;;;;;;;5016767;28;19953;-69
2022/12/01 09:26:00;;;;;;;;;;;;;;;;;;5014238;28;20272;-69
2022/12/01 09:28:26;;;;;;;;;;;;;;;;;;5013385;28;19913;-69
2022/12/01 09:30:52;;;;;;;;;;;;;;;;;;5013552;28;20650;-70
2022/12/01 09:33:17;;;;;;;;;;;;;;;;;;5019663;28;19971;-70
2022/12/01 09:35:43;;;;;;;;;;;;;;;;;;5013168;28;19914;-70
2022/12/01 09:38:09;;;;;;;;;;;;;;;;;;5018029;28;19913;-70
2022/12/01 09:40:35;;;;;;;;;;;;;;;;;;5025552;28;20353;-70
2022/12/01 09:43:01;;;;;;;;;;;;;;;;;;5025861;28;19909;-70
2022/12/01 09:45:27;;;;;;;;;;;;;;;;;;5032287;28;20054;-70
2022/12/01 09:47:53;;;;;;;;;;;;;;;;;;5032379;28;19962;-69
2022/12/01 09:50:20;;;;;;;;;;;;;;;;;;5018413;28;19910;-69
2022/12/01 09:52:46;;;;;;;;;;;;;;;;;;5032586;28;19916;-72
2022/12/01 09:55:12;;;;;;;;;;;;;;;;;;5020097;28;19914;-71
2022/12/01 09:57:39;;;;;;;;;;;;;;;;;;5012553;28;19921;-71
2022/12/01 10:00:05;;;;;;;;;;;;;;;;;;5013042;28;19916;-71
2022/12/01 10:02:31;;;;;;;;;;;;;;;;;;5018439;28;19939;-70
2022/12/01 10:04:56;;;;;;;;;;;;;;;;;;5026159;28;19921;-70
2022/12/01 10:07:22;;;;;;;;;;;;;;;;;;5018909;28;19924;-71
2022/12/01 10:09:48;;;;;;;;;;;;;;;;;;5028527;28;19917;-71
2022/12/01 10:12:14;;;;;;;;;;;;;;;;;;5014609;28;19917;-70
2022/12/01 10:14:40;;;;;;;;;;;;;;;;;;5029695;28;20329;-71
2022/12/01 10:17:06;;;;;;;;;;;;;;;;;;5031634;28;19928;-71
2022/12/01 10:19:32;;;;;;;;;;;;;;;;;;5032115;28;19913;-71
2022/12/01 10:21:58;;;;;;;;;;;;;;;;;;5031095;28;19909;-72
2022/12/01 10:24:23;;;;;;;;;;;;;;;;;;5031795;28;19974;-70
2022/12/01 10:26:49;;;;;;;;;;;;;;;;;;5024895;28;20515;-71
2022/12/01 10:29:15;;;;;;;;;;;;;;;;;;5028537;28;19913;-71
2022/12/01 10:31:41;;;;;;;;;;;;;;;;;;5012130;28;19910;-71
2022/12/01 10:34:07;;;;;;;;;;;;;;;;;;5012428;28;19953;-71
2022/12/01 10:36:33;;;;;;;;;;;;;;;;;;5014129;28;19921;-71
2022/12/01 10:38:59;;;;;;;;;;;;;;;;;;5031297;28;20404;-70
2022/12/01 10:41:25;;;;;;;;;;;;;;;;;;5029074;28;19956;-71
2022/12/01 10:43:51;;;;;;;;;;;;;;;;;;5030973;28;19917;-71
2022/12/01 10:46:17;;;;;;;;;;;;;;;;;;5024774;28;19917;-70
2022/12/01 10:48:42;;;;;;;;;;;;;;;;;;5027942;28;19999;-70
2022/12/01 10:51:08;;;;;;;;;;;;;;;;;;5011492;28;19914;-70
2022/12/01 10:53:35;;;;;;;;;;;;;;;;;;5015539;28;20369;-70
2022/12/01 10:56:01;;;;;;;;;;;;;;;;;;5017892;28;19924;-69
2022/12/01 10:58:27;;;;;;;;;;;;;;;;;;5017542;28;19917;-70
2022/12/01 11:00:53;;;;;;;;;;;;;;;;;;5011861;28;20735;-70
2022/12/01 11:03:19;;;;;;;;;;;;;;;;;;5030242;28;19913;-70
2022/12/01 11:05:44;;;;;;;;;;;;;;;;;;5018224;28;19949;-70
2022/12/01 11:08:10;;;;;;;;;;;;;;;;;;5024253;28;19975;-71
2022/12/01 11:10:36;;;;;;;;;;;;;;;;;;5022309;28;19988;-69
2022/12/01 11:13:02;;;;;;;;;;;;;;;;;;5030789;28;19971;-70
2022/12/01 11:15:28;;;;;;;;;;;;;;;;;;5030603;28;19909;-70
2022/12/01 11:17:54;;;;;;;;;;;;;;;;;;5030652;28;19925;-70
2022/12/01 11:20:20;;;;;;;;;;;;;;;;;;5030357;28;20289;-70
2022/12/01 11:22:46;;;;;;;;;;;;;;;;;;5023235;28;19963;-70
2022/12/01 11:25:11;;;;;;;;;;;;;;;;;;5029806;28;20007;-70
2022/12/01 11:27:37;;;;;;;;;;;;;;;;;;5030467;28;19921;-70
2022/12/01 11:30:03;;;;;;;;;;;;;;;;;;5023861;28;20439;-72
2022/12/01 11:32:29;;;;;;;;;;;;;;;;;;5030606;28;19913;-72
2022/12/01 11:34:55;;;;;;;;;;;;;;;;;;5024530;28;19920;-71
2022/12/01 11:37:21;;;;;;;;;;;;;;;;;;5024074;28;20008;-73
2022/12/01 11:39:47;;;;;;;;;;;;;;;;;;5029684;28;19913;-72
2022/12/01 11:42:13;;;;;;;;;;;;;;;;;;5030445;28;19919;-73
2022/12/01 11:44:39;;;;;;;;;;;;;;;;;;5031485;28;20004;-72
2022/12/01 11:47:05;;;;;;;;;;;;;;;;;;5022441;28;19916;-72
2022/12/01 11:49:31;;;;;;;;;;;;;;;;;;5024923;28;19939;-72
2022/12/01 11:51:56;;;;;;;;;;;;;;;;;;5030334;28;19964;-72
2022/12/01 11:54:22;;;;;;;;;;;;;;;;;;5030036;28;19913;-72
2022/12/01 11:56:48;;;;;;;;;;;;;;;;;;5029752;28;19921;-72
2022/12/01 11:59:14;;;;;;;;;;;;;;;;;;5030261;28;19917;-70
2022/12/01 12:01:40;;;;;;;;;;;;;;;;;;5028234;28;20535;-70
2022/12/01 12:04:06;;;;;;;;;;;;;;;;;;5027631;28;20537;-69
2022/12/01 12:06:32;;;;;;;;;;;;;;;;;;5010691;28;19941;-69
2022/12/01 12:08:58;;;;;;;;;;;;;;;;;;5023695;28;19916;-70
2022/12/01 12:11:24;;;;;;;;;;;;;;;;;;5010513;28;19952;-71
2022/12/01 12:13:50;;;;;;;;;;;;;;;;;;5021527;28;19956;-69
2022/12/01 12:16:16;;;;;;;;;;;;;;;;;;5017385;28;19921;-69
2022/12/01 12:18:42;;;;;;;;;;;;;;;;;;5025240;28;19914;-71
2022/12/01 12:21:08;;;;;;;;;;;;;;;;;;5010226;28;19945;-69
2022/12/01 12:23:34;;;;;;;;;;;;;;;;;;5012941;28;19939;-67
2022/12/01 12:25:59;;;;;;;;;;;;;;;;;;5013465;28;20008;-69
2022/12/01 12:28:25;;;;;;;;;;;;;;;;;;5009567;28;20038;-69
2022/12/01 12:30:51;;;;;;;;;;;;;;;;;;5016569;28;19970;-68
2022/12/01 12:33:17;;;;;;;;;;;;;;;;;;5019514;28;19913;-70
2022/12/01 12:35:44;;;;;;;;;;;;;;;;;;5014943;28;19963;-69
2022/12/01 12:38:10;;;;;;;;;;;;;;;;;;5013713;28;19917;-70
2022/12/01 12:40:36;;;;;;;;;;;;;;;;;;5019831;28;19928;-70
2022/12/01 12:43:02;;;;;;;;;;;;;;;;;;5023407;28;19918;-72
2022/12/01 12:45:28;;;;;;;;;;;;;;;;;;5020246;28;19994;-71
2022/12/01 12:47:54;;;;;;;;;;;;;;;;;;5011268;28;19922;-70
2022/12/01 12:50:20;;;;;;;;;;;;;;;;;;5017414;28;19913;-67
2022/12/01 12:52:46;;;;;;;;;;;;;;;;;;5015085;28;19956;-71
2022/12/01 12:55:12;;;;;;;;;;;;;;;;;;5015536;28;20434;-68
2022/12/01 12:57:38;;;;;;;;;;;;;;;;;;5013965;28;19925;-68
2022/12/01 13:00:04;;;;;;;;;;;;;;;;;;5014654;28;19997;-70
2022/12/01 13:02:29;;;;;;;;;;;;;;;;;;5016557;28;19924;-72
2022/12/01 13:04:55;;;;;;;;;;;;;;;;;;5013492;28;20279;-71
2022/12/01 13:07:21;;;;;;;;;;;;;;;;;;5022745;28;19913;-70
2022/12/01 13:09:47;;;;;;;;;;;;;;;;;;5016533;28;20506;-68
2022/12/01 13:12:14;;;;;;;;;;;;;;;;;;5015776;28;19920;-69
2022/12/01 13:14:40;;;;;;;;;;;;;;;;;;5014332;28;20681;-67
2022/12/01 13:17:06;;;;;;;;;;;;;;;;;;5016553;28;19917;-70
2022/12/01 13:19:32;;;;;;;;;;;;;;;;;;5016320;28;20000;-70
2022/12/01 13:21:58;;;;;;;;;;;;;;;;;;5015673;28;19909;-68
2022/12/01 13:24:24;;;;;;;;;;;;;;;;;;5015057;28;19918;-69
2022/12/01 13:26:50;;;;;;;;;;;;;;;;;;5015236;28;20028;-67
2022/12/01 13:29:16;;;;;;;;;;;;;;;;;;5016958;28;20292;-68
2022/12/01 13:31:42;;;;;;;;;;;;;;;;;;5016590;28;19959;-72
2022/12/01 13:34:08;;;;;;;;;;;;;;;;;;5015978;28;19913;-70
2022/12/01 13:36:34;;;;;;;;;;;;;;;;;;5013642;28;19995;-70
2022/12/01 13:39:00;;;;;;;;;;;;;;;;;;5012725;28;19983;-71
2022/12/01 13:41:26;;;;;;;;;;;;;;;;;;5018212;28;20404;-70
2022/12/01 13:43:52;;;;;;;;;;;;;;;;;;5016948;28;21436;-71
2022/12/01 13:46:18;;;;;;;;;;;;;;;;;;5021601;28;19909;-71
2022/12/01 13:48:44;;;;;;;;;;;;;;;;;;5017549;28;20029;-71
2022/12/01 13:51:09;;;;;;;;;;;;;;;;;;5021267;28;19977;-72
2022/12/01 13:53:35;;;;;;;;;;;;;;;;;;5020784;28;19940;-71
2022/12/01 13:56:01;;;;;;;;;;;;;;;;;;5021897;28;19917;-72
2022/12/01 13:58:27;;;;;;;;;;;;;;;;;;5014753;28;20259;-73
2022/12/01 14:00:53;;;;;;;;;;;;;;;;;;5020848;28;19920;-72
2022/12/01 14:03:19;;;;;;;;;;;;;;;;;;5020557;28;19984;-71
2022/12/01 14:05:45;;;;;;;;;;;;;;;;;;5018769;28;19926;-72
2022/12/01 14:08:11;;;;;;;;;;;;;;;;;;5021356;28;20056;-72
2022/12/01 14:10:37;;;;;;;;;;;;;;;;;;5017210;28;19932;-72
2022/12/01 14:13:03;;;;;;;;;;;;;;;;;;5019963;28;19957;-71
2022/12/01 14:15:28;;;;;;;;;;;;;;;;;;5016388;28;19920;-70
2022/12/01 14:17:54;;;;;;;;;;;;;;;;;;5021544;28;19940;-71
2022/12/01 14:20:21;;;;;;;;;;;;;;;;;;5020259;28;19958;-71
2022/12/01 14:22:49;;;;;;;;;;;;;;;;;;5017519;28;19913;-71
2022/12/01 14:25:14;;;;;;;;;;;;;;;;;;5017224;28;20400;-69
2022/12/01 14:27:40;;;;;;;;;;;;;;;;;;5018076;28;19953;-71
2022/12/01 14:30:06;;;;;;;;;;;;;;;;;;5019756;28;19921;-72
2022/12/01 14:32:32;;;;;;;;;;;;;;;;;;5020381;28;19914;-71
2022/12/01 14:34:58;;;;;;;;;;;;;;;;;;5017355;28;19940;-71
2022/12/01 14:37:24;;;;;;;;;;;;;;;;;;5019029;28;20696;-72
2022/12/01 14:39:50;;;;;;;;;;;;;;;;;;5020313;28;20378;-72
2022/12/01 14:44:02;;;;;;;;;;;;;;;;;;5017385;28;19914;-71
2022/12/01 14:45:02;;;;;;;;;;;;;;;;;;5018768;28;19910;-72
2022/12/01 14:47:28;;;;;;;;;;;;;;;;;;5016909;28;19913;-71
2022/12/01 14:49:54;;;;;;;;;;;;;;;;;;5018644;28;20007;-72
2022/12/01 14:52:19;;;;;;;;;;;;;;;;;;5016410;28;20298;-72
2022/12/01 14:54:45;;;;;;;;;;;;;;;;;;5017415;28;19914;-70
2022/12/01 14:57:11;;;;;;;;;;;;;;;;;;5012229;28;20445;-72
2022/12/01 14:59:37;;;;;;;;;;;;;;;;;;5021322;28;19908;-74
2022/12/01 15:02:07;;;;;;;;;;;;;;;;;;5020300;28;20381;-71
2022/12/01 15:04:33;;;;;;;;;;;;;;;;;;5016197;28;19948;-74
2022/12/01 15:06:59;;;;;;;;;;;;;;;;;;5024647;28;19921;-72
2022/12/01 15:09:25;;;;;;;;;;;;;;;;;;5016257;28;20310;-72
2022/12/01 15:11:51;;;;;;;;;;;;;;;;;;5020244;28;20932;-72
2022/12/01 15:14:17;;;;;;;;;;;;;;;;;;5014846;28;19948;-72
2022/12/01 15:16:43;;;;;;;;;;;;;;;;;;5017274;28;19917;-71
2022/12/01 15:19:09;;;;;;;;;;;;;;;;;;5015978;28;19921;-70
2022/12/01 15:21:35;;;;;;;;;;;;;;;;;;5019508;28;20095;-73
2022/12/01 15:24:00;;;;;;;;;;;;;;;;;;5018674;28;19913;-71
2022/12/01 15:26:26;;;;;;;;;;;;;;;;;;5016270;28;19954;-71
2022/12/01 15:28:52;;;;;;;;;;;;;;;;;;5020989;28;20443;-70
2022/12/01 15:31:18;;;;;;;;;;;;;;;;;;5021584;28;19909;-70
2022/12/01 15:33:45;;;;;;;;;;;;;;;;;;5016826;28;19910;-66
2022/12/01 15:36:11;;;;;;;;;;;;;;;;;;5017270;28;19960;-73
2022/12/01 15:38:37;;;;;;;;;;;;;;;;;;5013217;28;20294;-74
2022/12/01 15:41:03;;;;;;;;;;;;;;;;;;5017660;28;20011;-72
2022/12/01 15:43:30;;;;;;;;;;;;;;;;;;5014354;28;19909;-74
2022/12/01 15:45:56;;;;;;;;;;;;;;;;;;5022020;28;19941;-75
2022/12/01 15:48:22;;;;;;;;;;;;;;;;;;5024553;28;20370;-74
2022/12/01 15:50:48;;;;;;;;;;;;;;;;;;5019160;28;20676;-73
2022/12/01 15:53:14;;;;;;;;;;;;;;;;;;5017391;28;19963;-74
2022/12/01 15:55:40;;;;;;;;;;;;;;;;;;5015883;28;20806;-73
2022/12/01 15:58:05;;;;;;;;;;;;;;;;;;5020435;28;19917;-74
2022/12/01 16:00:31;;;;;;;;;;;;;;;;;;5016529;28;19988;-72
2022/12/01 16:02:57;;;;;;;;;;;;;;;;;;5020766;28;19951;-74
2022/12/01 16:05:23;;;;;;;;;;;;;;;;;;5014993;28;20398;-72
2022/12/01 16:07:49;;;;;;;;;;;;;;;;;;5022433;28;20087;-72
2022/12/01 16:10:15;;;;;;;;;;;;;;;;;;5014875;28;19963;-73
2022/12/01 16:12:41;;;;;;;;;;;;;;;;;;5018574;28;19917;-72
2022/12/01 16:15:07;;;;;;;;;;;;;;;;;;5013922;28;20004;-72
2022/12/01 16:17:32;;;;;;;;;;;;;;;;;;5017912;28;19919;-73
2022/12/01 16:19:58;;;;;;;;;;;;;;;;;;5017051;28;20000;-73
2022/12/01 16:22:24;;;;;;;;;;;;;;;;;;5019569;28;20390;-72
2022/12/01 16:24:50;;;;;;;;;;;;;;;;;;5016115;28;19913;-72
2022/12/01 16:27:16;;;;;;;;;;;;;;;;;;5015152;28;20720;-72
2022/12/01 16:29:42;;;;;;;;;;;;;;;;;;5016412;28;19909;-73
2022/12/01 16:32:08;;;;;;;;;;;;;;;;;;5015941;28;20023;-72
2022/12/01 16:34:34;;;;;;;;;;;;;;;;;;5015747;28;19992;-73
2022/12/01 16:37:00;;;;;;;;;;;;;;;;;;5015462;28;19928;-73
2022/12/01 16:39:26;;;;;;;;;;;;;;;;;;5017898;28;19913;-73
2022/12/01 16:41:52;;;;;;;;;;;;;;;;;;5017923;28;19913;-73